createdAt,value
2019-03-21T00:01:39.375Z,100410.89
2019-03-21T00:04:11.998Z,100414.66
2019-03-21T00:06:42.026Z,100413.31
2019-03-21T00:09:14.200Z,100407.34
2019-03-21T00:12:22.119Z,100404.89
2019-03-21T00:15:27.970Z,100414.01
2019-03-21T00:18:04.416Z,100416.16
2019-03-21T00:20:35.312Z,100417.75
2019-03-21T00:23:05.985Z,100417.97
2019-03-21T00:25:36.293Z,100429.97
2019-03-21T00:28:06.462Z,100430.25
2019-03-21T00:30:36.492Z,100431.54
2019-03-21T00:33:07.021Z,100425.70
2019-03-21T00:35:38.583Z,100425.89
2019-03-21T00:38:09.086Z,100419.91
2019-03-21T00:40:43.767Z,100422.11
2019-03-21T00:43:13.252Z,100416.69
2019-03-21T00:45:43.060Z,100418.88
2019-03-21T00:48:14.571Z,100422.86
2019-03-21T00:50:44.348Z,100424.00
2019-03-21T00:53:14.120Z,100420.66
2019-03-21T00:55:44.765Z,100412.98
2019-03-21T00:58:14.449Z,100409.70
2019-03-21T01:00:47.038Z,100420.44
2019-03-21T01:03:17.002Z,100411.43
2019-03-21T01:05:47.440Z,100411.00
2019-03-21T01:08:18.178Z,100410.97
2019-03-21T01:10:49.087Z,100410.89
2019-03-21T01:13:19.764Z,100413.30
2019-03-21T01:15:50.532Z,100414.96
2019-03-21T01:18:22.071Z,100410.50
2019-03-21T01:20:53.254Z,100412.87
2019-03-21T01:23:23.716Z,100409.01
2019-03-21T01:25:55.553Z,100407.25
2019-03-21T01:28:25.485Z,100403.12
2019-03-21T01:30:56.022Z,100408.90
2019-03-21T01:33:26.206Z,100408.01
2019-03-21T01:35:56.644Z,100405.70
2019-03-21T01:38:27.124Z,100402.52
2019-03-21T01:40:57.379Z,100402.13
2019-03-21T01:43:28.251Z,100407.47
2019-03-21T01:45:58.427Z,100406.31
2019-03-21T01:48:28.736Z,100402.53
2019-03-21T01:50:58.964Z,100397.55
2019-03-21T01:53:29.091Z,100395.39
2019-03-21T01:55:59.227Z,100389.73
2019-03-21T01:58:29.859Z,100398.45
2019-03-21T02:00:59.978Z,100399.84
2019-03-21T02:03:29.936Z,100402.98
2019-03-21T02:06:00.059Z,100396.83
2019-03-21T02:08:30.466Z,100397.23
2019-03-21T02:11:00.414Z,100391.61
2019-03-21T02:13:30.680Z,100401.55
2019-03-21T02:16:00.894Z,100395.45
2019-03-21T02:18:31.216Z,100397.59
2019-03-21T02:21:01.450Z,100386.89
2019-03-21T02:23:31.888Z,100387.27
2019-03-21T02:26:01.982Z,100386.98
2019-03-21T02:28:32.181Z,100383.47
2019-03-21T02:31:02.466Z,100385.80
2019-03-21T02:33:33.058Z,100385.39
2019-03-21T02:36:03.218Z,100378.09
2019-03-21T02:38:33.214Z,100377.25
2019-03-21T02:41:04.823Z,100375.96
2019-03-21T02:43:34.729Z,100380.88
2019-03-21T02:46:05.474Z,100386.13
2019-03-21T02:48:35.295Z,100384.45
2019-03-21T02:51:05.019Z,100378.31
2019-03-21T02:53:35.033Z,100383.16
2019-03-21T02:56:05.519Z,100376.81
2019-03-21T02:58:35.304Z,100378.97
2019-03-21T03:01:05.569Z,100384.47
2019-03-21T03:03:35.758Z,100381.48
2019-03-21T03:06:05.863Z,100385.36
2019-03-21T03:08:35.590Z,100387.53
2019-03-21T03:11:05.987Z,100375.92
2019-03-21T03:13:35.671Z,100378.63
2019-03-21T03:16:05.540Z,100372.95
2019-03-21T03:18:35.250Z,100373.39
2019-03-21T03:21:04.974Z,100375.55
2019-03-21T03:23:34.868Z,100378.12
2019-03-21T03:26:04.917Z,100388.50
2019-03-21T03:28:34.908Z,100386.36
2019-03-21T03:31:04.718Z,100386.72
2019-03-21T03:33:34.714Z,100389.22
2019-03-21T03:36:04.678Z,100384.39
2019-03-21T03:38:34.715Z,100389.09
2019-03-21T03:41:04.849Z,100385.03
2019-03-21T03:43:34.606Z,100379.11
2019-03-21T03:46:04.379Z,100385.12
2019-03-21T03:48:34.248Z,100375.15
2019-03-21T03:51:04.302Z,100385.49
2019-03-21T03:53:34.295Z,100389.83
2019-03-21T03:56:04.437Z,100383.82
2019-03-21T03:58:34.693Z,100387.70
2019-03-21T04:01:04.586Z,100382.20
2019-03-21T04:03:34.384Z,100386.53
2019-03-21T04:06:05.198Z,100385.05
2019-03-21T04:08:35.726Z,100386.63
2019-03-21T04:11:06.041Z,100380.30
2019-03-21T04:13:36.473Z,100381.41
2019-03-21T04:16:06.627Z,100384.45
2019-03-21T04:18:37.331Z,100383.16
2019-03-21T04:21:08.400Z,100383.53
2019-03-21T04:23:38.933Z,100386.91
2019-03-21T04:26:24.782Z,100392.21
2019-03-21T04:28:54.764Z,100388.41
2019-03-21T04:31:24.581Z,100392.50
2019-03-21T04:33:56.756Z,100388.48
2019-03-21T04:36:27.139Z,100387.92
2019-03-21T04:38:57.361Z,100384.11
2019-03-21T04:41:27.445Z,100383.16
2019-03-21T04:43:57.339Z,100388.47
2019-03-21T04:46:27.537Z,100390.00
2019-03-21T04:48:57.381Z,100379.95
2019-03-21T04:51:27.081Z,100378.77
2019-03-21T04:53:57.450Z,100377.69
2019-03-21T04:56:27.566Z,100381.75
2019-03-21T04:58:57.487Z,100368.98
2019-03-21T05:01:27.832Z,100377.98
2019-03-21T05:03:57.959Z,100379.06
2019-03-21T05:06:28.203Z,100382.64
2019-03-21T05:08:58.403Z,100388.88
2019-03-21T05:11:28.497Z,100389.07
2019-03-21T05:13:58.982Z,100383.52
2019-03-21T05:16:29.268Z,100393.05
2019-03-21T05:18:59.557Z,100384.16
2019-03-21T05:21:29.483Z,100381.55
2019-03-21T05:23:59.527Z,100386.30
2019-03-21T05:26:29.801Z,100385.86
2019-03-21T05:29:00.025Z,100386.79
2019-03-21T05:31:32.253Z,100382.91
2019-03-21T05:34:02.249Z,100385.78
2019-03-21T05:36:33.222Z,100393.49
2019-03-21T05:39:04.569Z,100396.97
2019-03-21T05:41:34.828Z,100398.23
2019-03-21T05:44:31.842Z,100398.58
2019-03-21T05:47:02.013Z,100401.50
2019-03-21T05:49:32.154Z,100395.36
2019-03-21T05:52:02.584Z,100403.60
2019-03-21T05:54:32.544Z,100400.94
2019-03-21T05:57:02.837Z,100401.33
2019-03-21T05:59:33.077Z,100409.78
2019-03-21T06:02:03.057Z,100406.72
2019-03-21T06:04:33.187Z,100408.85
2019-03-21T06:07:23.079Z,100414.80
2019-03-21T06:09:53.284Z,100411.58
2019-03-21T06:12:23.485Z,100416.34
2019-03-21T06:14:57.480Z,100414.52
2019-03-21T06:17:28.763Z,100422.61
2019-03-21T06:20:41.050Z,100414.00
2019-03-21T06:23:43.667Z,100422.28
2019-03-21T06:26:46.915Z,100417.56
2019-03-21T06:29:16.908Z,100418.95
2019-03-21T06:31:46.925Z,100415.50
2019-03-21T06:34:16.939Z,100415.34
2019-03-21T06:36:47.355Z,100412.25
2019-03-21T06:39:17.331Z,100412.45
2019-03-21T06:41:48.411Z,100413.16
2019-03-21T06:44:18.482Z,100415.59
2019-03-21T06:46:49.866Z,100413.13
2019-03-21T06:49:20.197Z,100421.03
2019-03-21T06:51:50.712Z,100414.16
2019-03-21T06:54:21.235Z,100412.47
2019-03-21T06:56:51.988Z,100413.45
2019-03-21T06:59:22.275Z,100418.38
2019-03-21T07:01:53.393Z,100417.09
2019-03-21T07:04:24.464Z,100415.52
2019-03-21T07:06:55.548Z,100411.62
2019-03-21T07:09:26.254Z,100410.42
2019-03-21T07:11:57.755Z,100415.70
2019-03-21T07:14:28.098Z,100418.38
2019-03-21T07:17:00.581Z,100413.63
2019-03-21T07:19:30.451Z,100417.18
2019-03-21T07:22:00.495Z,100414.02
2019-03-21T07:24:30.564Z,100419.73
2019-03-21T07:27:00.946Z,100416.95
2019-03-21T07:29:31.302Z,100415.61
2019-03-21T07:32:01.326Z,100414.72
2019-03-21T07:34:32.167Z,100414.78
2019-03-21T07:37:02.485Z,100422.80
2019-03-21T07:39:32.451Z,100418.28
2019-03-21T07:42:02.460Z,100417.91
2019-03-21T07:44:32.274Z,100416.43
2019-03-21T07:47:12.297Z,100409.35
2019-03-21T07:49:33.520Z,100409.87
2019-03-21T07:52:03.575Z,100410.64
2019-03-21T07:54:33.310Z,100404.28
2019-03-21T07:57:03.357Z,100407.11
2019-03-21T07:59:33.376Z,100401.17
2019-03-21T08:02:03.681Z,100404.22
2019-03-21T08:04:33.725Z,100404.03
2019-03-21T08:07:03.856Z,100405.33
2019-03-21T08:09:34.114Z,100406.45
2019-03-21T08:12:04.373Z,100404.70
2019-03-21T08:14:34.394Z,100404.27
2019-03-21T08:17:04.670Z,100402.06
2019-03-21T08:19:34.721Z,100401.80
2019-03-21T08:22:04.926Z,100403.05
2019-03-21T08:24:35.145Z,100407.47
2019-03-21T08:27:05.434Z,100406.84
2019-03-21T08:29:35.594Z,100405.72
2019-03-21T08:32:05.574Z,100401.92
2019-03-21T08:34:35.762Z,100402.09
2019-03-21T08:37:05.841Z,100398.33
2019-03-21T08:39:35.739Z,100399.72
2019-03-21T08:42:05.617Z,100403.86
2019-03-21T08:44:35.453Z,100399.94
2019-03-21T08:47:05.195Z,100405.55
2019-03-21T08:49:35.185Z,100407.06
2019-03-21T08:52:04.903Z,100401.91
2019-03-21T08:54:35.079Z,100408.48
2019-03-21T08:57:04.794Z,100400.64
2019-03-21T08:59:34.934Z,100399.41
2019-03-21T09:02:04.871Z,100395.67
2019-03-21T09:04:34.559Z,100394.83
2019-03-21T09:07:04.431Z,100400.59
2019-03-21T09:09:34.250Z,100393.64
2019-03-21T09:12:04.276Z,100398.16
2019-03-21T09:14:34.002Z,100389.92
2019-03-21T09:17:03.738Z,100380.54
2019-03-21T09:19:33.517Z,100381.30
2019-03-21T09:22:03.642Z,100375.63
2019-03-21T09:24:33.476Z,100367.88
2019-03-21T09:27:03.338Z,100368.70
2019-03-21T09:29:33.024Z,100365.84
2019-03-21T09:32:02.918Z,100371.95
2019-03-21T09:34:32.620Z,100370.52
2019-03-21T09:37:04.033Z,100371.53
2019-03-21T09:39:33.980Z,100366.20
2019-03-21T09:42:04.243Z,100370.22
2019-03-21T09:44:34.471Z,100375.50
2019-03-21T09:47:04.272Z,100365.77
2019-03-21T09:49:34.270Z,100361.49
2019-03-21T09:52:04.305Z,100359.09
2019-03-21T09:54:34.019Z,100359.91
2019-03-21T09:57:03.722Z,100357.28
2019-03-21T09:59:33.602Z,100347.38
2019-03-21T10:02:03.485Z,100348.66
2019-03-21T10:04:33.191Z,100342.07
2019-03-21T10:07:02.876Z,100342.78
2019-03-21T10:09:32.729Z,100341.59
2019-03-21T10:12:02.420Z,100335.66
2019-03-21T10:14:32.365Z,100331.56
2019-03-21T10:17:02.158Z,100336.24
2019-03-21T10:19:32.005Z,100332.66
2019-03-21T10:22:01.811Z,100327.37
2019-03-21T10:24:31.761Z,100329.66
2019-03-21T10:27:02.100Z,100325.59
2019-03-21T10:29:31.828Z,100324.24
2019-03-21T10:32:01.501Z,100314.36
2019-03-21T10:34:31.207Z,100306.37
2019-03-21T10:37:01.007Z,100303.15
2019-03-21T10:39:30.730Z,100308.89
2019-03-21T10:42:00.732Z,100295.55
2019-03-21T10:44:30.452Z,100293.11
2019-03-21T10:47:00.135Z,100292.74
2019-03-21T10:49:29.813Z,100292.36
2019-03-21T10:51:59.546Z,100281.75
2019-03-21T10:54:29.429Z,100279.73
2019-03-21T10:56:59.173Z,100279.48
2019-03-21T10:59:29.087Z,100284.08
2019-03-21T11:02:07.346Z,100275.62
2019-03-21T11:04:30.405Z,100280.09
2019-03-21T11:07:01.538Z,100270.80
2019-03-21T11:09:31.719Z,100278.81
2019-03-21T11:12:01.572Z,100268.69
2019-03-21T11:14:31.361Z,100275.89
2019-03-21T11:17:01.125Z,100265.00
2019-03-21T11:19:30.796Z,100263.34
2019-03-21T11:22:06.271Z,100268.27
2019-03-21T11:24:32.563Z,100261.45
2019-03-21T11:27:02.269Z,100255.13
2019-03-21T11:29:31.976Z,100255.80
2019-03-21T11:32:01.845Z,100257.06
2019-03-21T11:34:31.544Z,100258.03
2019-03-21T11:37:01.281Z,100252.42
2019-03-21T11:39:30.976Z,100250.05
2019-03-21T11:42:00.709Z,100253.02
2019-03-21T11:44:36.135Z,100242.70
2019-03-21T11:47:09.075Z,100244.25
2019-03-21T11:49:38.779Z,100233.05
2019-03-21T11:52:17.825Z,100227.38
2019-03-21T11:54:40.108Z,100225.06
2019-03-21T11:57:09.951Z,100224.56
2019-03-21T11:59:51.414Z,100218.24
2019-03-21T12:02:27.055Z,100205.86
2019-03-21T12:04:52.710Z,100208.52
2019-03-21T12:07:22.454Z,100202.07
2019-03-21T12:09:52.156Z,100201.06
2019-03-21T12:12:21.851Z,100201.61
2019-03-21T12:14:51.735Z,100197.09
2019-03-21T12:17:21.413Z,100191.80
2019-03-21T12:19:51.179Z,100188.02
2019-03-21T12:22:29.503Z,100180.09
2019-03-21T12:24:52.360Z,100174.77
2019-03-21T12:27:22.066Z,100169.89
2019-03-21T12:29:52.025Z,100168.35
2019-03-21T12:32:21.710Z,100159.33
2019-03-21T12:34:51.678Z,100161.55
2019-03-21T12:37:21.637Z,100156.86
2019-03-21T12:39:51.385Z,100153.48
2019-03-21T12:42:21.375Z,100152.63
2019-03-21T12:44:51.116Z,100153.72
2019-03-21T12:47:30.810Z,100145.73
2019-03-21T12:49:52.552Z,100140.48
2019-03-21T12:52:22.282Z,100136.88
2019-03-21T12:54:52.039Z,100142.14
2019-03-21T12:57:21.721Z,100132.16
2019-03-21T12:59:51.672Z,100135.77
2019-03-21T13:02:32.095Z,100131.56
2019-03-21T13:04:53.395Z,100117.62
2019-03-21T13:07:23.334Z,100114.76
2019-03-21T13:09:53.068Z,100117.41
2019-03-21T13:12:23.061Z,100117.61
2019-03-21T13:14:52.999Z,100106.55
2019-03-21T13:17:22.722Z,100103.44
2019-03-21T13:19:52.739Z,100104.65
2019-03-21T13:22:22.475Z,100101.28
2019-03-21T13:24:52.229Z,100097.42
2019-03-21T13:27:21.911Z,100097.30
2019-03-21T13:29:51.694Z,100095.38
2019-03-21T13:32:21.420Z,100089.61
2019-03-21T13:34:51.161Z,100092.44
2019-03-21T13:37:21.049Z,100079.00
2019-03-21T13:39:51.039Z,100082.25
2019-03-21T13:42:20.756Z,100081.05
2019-03-21T13:44:50.636Z,100071.34
2019-03-21T13:47:20.562Z,100077.61
2019-03-21T13:49:50.466Z,100077.27
2019-03-21T13:52:20.387Z,100069.47
2019-03-21T13:54:50.114Z,100069.46
2019-03-21T13:57:20.328Z,100063.07
2019-03-21T13:59:50.215Z,100061.37
2019-03-21T14:02:19.956Z,100063.30
2019-03-21T14:04:49.640Z,100052.48
2019-03-21T14:07:19.370Z,100056.53
2019-03-21T14:09:49.133Z,100045.91
2019-03-21T14:12:19.026Z,100047.47
2019-03-21T14:14:48.716Z,100046.06
2019-03-21T14:17:22.223Z,100040.25
2019-03-21T14:19:49.957Z,100039.86
2019-03-21T14:22:21.348Z,100038.33
2019-03-21T14:24:51.257Z,100039.31
2019-03-21T14:27:21.120Z,100036.41
2019-03-21T14:30:00.862Z,100026.27
2019-03-21T14:32:22.614Z,100027.80
2019-03-21T14:34:52.407Z,100026.16
2019-03-21T14:37:22.198Z,100024.80
2019-03-21T14:39:51.887Z,100023.98
2019-03-21T14:42:21.946Z,100019.77
2019-03-21T14:44:51.837Z,100019.25
2019-03-21T14:47:21.570Z,100021.81
2019-03-21T14:49:53.157Z,100017.68
2019-03-21T14:52:23.250Z,100018.12
2019-03-21T14:54:53.284Z,100029.51
2019-03-21T14:57:23.392Z,100017.55
2019-03-21T14:59:53.609Z,100017.47
2019-03-21T15:02:23.588Z,100015.22
2019-03-21T15:04:54.044Z,100016.37
2019-03-21T15:07:26.348Z,100016.47
2019-03-21T15:09:58.140Z,100016.64
2019-03-21T15:12:32.628Z,100012.77
2019-03-21T15:15:03.516Z,100004.69
2019-03-21T15:17:34.688Z,100003.66
2019-03-21T15:20:06.841Z,99993.47
2019-03-21T15:22:37.810Z,100000.39
2019-03-21T15:25:10.452Z,100010.55
2019-03-21T15:27:41.622Z,100009.49
2019-03-21T15:30:18.492Z,100014.90
2019-03-21T15:32:50.531Z,100010.81
2019-03-21T15:35:22.455Z,100008.19
2019-03-21T15:37:54.220Z,100001.45
2019-03-21T15:40:25.937Z,100006.87
2019-03-21T15:42:57.356Z,100007.07
2019-03-21T15:45:29.478Z,100001.31
2019-03-21T15:48:00.282Z,99995.27
2019-03-21T15:50:37.582Z,99998.50
2019-03-21T15:53:09.184Z,100003.58
2019-03-21T15:55:41.017Z,99995.96
2019-03-21T15:58:12.303Z,99997.79
2019-03-21T16:00:45.251Z,100001.13
2019-03-21T16:03:17.812Z,99998.11
2019-03-21T16:05:49.503Z,100004.30
2019-03-21T16:08:22.768Z,100003.10
2019-03-21T16:10:54.913Z,100001.30
2019-03-21T16:13:26.140Z,100006.63
2019-03-21T16:15:57.605Z,100005.77
2019-03-21T16:18:29.411Z,100001.58
2019-03-21T16:21:00.875Z,100005.67
2019-03-21T16:23:32.221Z,100001.35
2019-03-21T16:26:03.413Z,100012.31
2019-03-21T16:28:34.520Z,100011.88
2019-03-21T16:31:05.808Z,100009.10
2019-03-21T16:33:40.342Z,100005.98
2019-03-21T16:36:13.014Z,100007.18
2019-03-21T16:38:44.708Z,100006.72
2019-03-21T16:41:16.589Z,100010.34
2019-03-21T16:43:49.130Z,100005.17
2019-03-21T16:46:20.987Z,100009.41
2019-03-21T16:48:52.897Z,100010.86
2019-03-21T16:51:24.456Z,100009.15
2019-03-21T16:53:56.353Z,100010.73
2019-03-21T16:56:27.787Z,100007.58
2019-03-21T16:58:59.316Z,100010.59
2019-03-21T17:01:30.619Z,100015.72
2019-03-21T17:04:01.542Z,100009.68
2019-03-21T17:06:32.905Z,100007.99
2019-03-21T17:09:04.157Z,100016.25
2019-03-21T17:11:35.365Z,100015.34
2019-03-21T17:14:06.470Z,100017.48
2019-03-21T17:16:38.126Z,100014.53
2019-03-21T17:19:10.604Z,100013.40
2019-03-21T17:21:41.450Z,100012.14
2019-03-21T17:24:13.152Z,100014.89
2019-03-21T17:26:45.106Z,100014.47
2019-03-21T17:29:17.407Z,100016.41
2019-03-21T17:31:50.014Z,100016.33
2019-03-21T17:34:21.587Z,100020.05
2019-03-21T17:36:53.453Z,100015.25
2019-03-21T17:39:26.461Z,100018.94
2019-03-21T17:41:57.839Z,100027.88
2019-03-21T17:44:29.204Z,100027.09
2019-03-21T17:47:00.286Z,100031.13
2019-03-21T17:49:31.594Z,100034.04
2019-03-21T17:52:02.623Z,100035.55
2019-03-21T17:54:41.535Z,100039.81
2019-03-21T17:57:06.422Z,100044.34
2019-03-21T17:59:38.007Z,100045.24
2019-03-21T18:02:09.277Z,100052.27
2019-03-21T18:04:40.995Z,100052.58
2019-03-21T18:07:12.672Z,100046.59
2019-03-21T18:09:44.245Z,100051.30
2019-03-21T18:12:17.437Z,100048.77
2019-03-21T18:14:49.235Z,100049.72
2019-03-21T18:17:20.601Z,100049.77
2019-03-21T18:19:52.192Z,100055.83
2019-03-21T18:22:23.939Z,100059.39
2019-03-21T18:24:56.262Z,100059.67
2019-03-21T18:27:26.945Z,100057.01
2019-03-21T18:29:58.513Z,100063.06
2019-03-21T18:32:29.353Z,100063.98
2019-03-21T18:35:00.406Z,100067.51
2019-03-21T18:37:32.019Z,100070.89
2019-03-21T18:40:02.843Z,100071.98
2019-03-21T18:42:33.865Z,100069.98
2019-03-21T18:45:05.204Z,100074.44
2019-03-21T18:47:36.277Z,100070.38
2019-03-21T18:50:09.349Z,100073.70
2019-03-21T18:52:40.303Z,100074.64
2019-03-21T18:55:15.171Z,100077.00
2019-03-21T18:57:47.497Z,100074.47
2019-03-21T19:00:20.225Z,100075.16
2019-03-21T19:02:52.296Z,100073.11
2019-03-21T19:05:23.642Z,100075.55
2019-03-21T19:07:55.952Z,100077.80
2019-03-21T19:10:27.307Z,100079.89
2019-03-21T19:12:57.905Z,100079.00
2019-03-21T19:15:29.132Z,100072.92
2019-03-21T19:17:59.885Z,100080.12
2019-03-21T19:20:30.757Z,100079.75
2019-03-21T19:23:02.206Z,100084.16
2019-03-21T19:25:33.175Z,100089.51
2019-03-21T19:28:04.402Z,100093.77
2019-03-21T19:30:35.322Z,100087.99
2019-03-21T19:33:06.514Z,100088.36
2019-03-21T19:35:37.954Z,100089.67
2019-03-21T19:38:09.223Z,100083.50
2019-03-21T19:40:39.878Z,100082.84
2019-03-21T19:43:10.945Z,100087.55
2019-03-21T19:45:42.048Z,100089.97
2019-03-21T19:48:13.457Z,100081.64
2019-03-21T19:50:46.402Z,100086.77
2019-03-21T19:53:17.971Z,100089.85
2019-03-21T19:55:50.956Z,100085.88
2019-03-21T19:58:22.849Z,100090.64
2019-03-21T20:00:54.382Z,100088.06
2019-03-21T20:03:26.221Z,100084.67
2019-03-21T20:06:00.469Z,100079.12
2019-03-21T20:08:30.406Z,100079.55
2019-03-21T20:11:01.782Z,100085.36
2019-03-21T20:13:33.013Z,100083.97
2019-03-21T20:16:04.097Z,100086.17
2019-03-21T20:18:35.449Z,100092.62
2019-03-21T20:21:06.701Z,100095.02
2019-03-21T20:23:37.975Z,100093.23
2019-03-21T20:26:09.269Z,100101.56
2019-03-21T20:28:40.839Z,100098.94
2019-03-21T20:31:12.074Z,100110.88
2019-03-21T20:33:44.250Z,100108.34
2019-03-21T20:36:16.889Z,100108.81
2019-03-21T20:38:50.000Z,100103.58
2019-03-21T20:41:22.740Z,100100.87
2019-03-21T20:43:53.760Z,100105.33
2019-03-21T20:46:24.738Z,100105.66
2019-03-21T20:48:53.364Z,100101.92
2019-03-21T20:51:24.179Z,100110.03
2019-03-21T20:53:55.578Z,100112.88
2019-03-21T20:56:26.679Z,100109.41
2019-03-21T20:58:57.637Z,100113.69
2019-03-21T21:01:28.784Z,100111.62
2019-03-21T21:03:59.828Z,100112.88
2019-03-21T21:06:31.802Z,100105.98
2019-03-21T21:09:08.210Z,100108.84
2019-03-21T21:11:39.566Z,100105.16
2019-03-21T21:14:10.519Z,100107.16
2019-03-21T21:16:42.127Z,100109.38
2019-03-21T21:19:12.966Z,100112.81
2019-03-21T21:21:44.032Z,100110.55
2019-03-21T21:24:15.292Z,100113.97
2019-03-21T21:26:47.270Z,100115.20
2019-03-21T21:29:18.602Z,100111.16
2019-03-21T21:31:50.979Z,100114.16
2019-03-21T21:34:22.209Z,100110.51
2019-03-21T21:36:53.641Z,100106.47
2019-03-21T21:39:25.814Z,100110.68
2019-03-21T21:41:57.106Z,100114.71
2019-03-21T21:44:28.013Z,100117.34
2019-03-21T21:46:58.899Z,100116.02
2019-03-21T21:49:30.076Z,100115.08
2019-03-21T21:52:01.218Z,100116.43
2019-03-21T21:54:32.153Z,100114.98
2019-03-21T21:57:02.896Z,100114.81
2019-03-21T22:02:58.417Z,100112.30
2019-03-21T22:05:28.163Z,100110.73
2019-03-21T22:07:58.050Z,100113.38
2019-03-21T22:10:29.487Z,100118.17
2019-03-21T22:12:59.540Z,100116.87
2019-03-21T22:15:29.597Z,100113.55
2019-03-21T22:17:59.702Z,100116.27
2019-03-21T22:20:29.424Z,100118.25
2019-03-21T22:22:59.430Z,100115.34
2019-03-21T22:25:29.386Z,100109.06
2019-03-21T22:27:59.517Z,100114.21
2019-03-21T22:30:29.583Z,100116.03
2019-03-21T22:32:59.281Z,100118.19
2019-03-21T22:35:29.044Z,100119.28
2019-03-21T22:37:59.302Z,100120.72
2019-03-21T22:40:29.034Z,100118.75
2019-03-21T22:42:58.918Z,100112.41
2019-03-21T22:45:28.749Z,100113.03
2019-03-21T22:47:58.489Z,100110.04
2019-03-21T22:50:28.264Z,100104.38
2019-03-21T22:52:58.068Z,100107.70
2019-03-21T22:55:27.815Z,100102.66
2019-03-21T22:57:57.575Z,100104.98
2019-03-21T23:00:34.827Z,100103.20
2019-03-21T23:03:04.546Z,100101.23
2019-03-21T23:05:34.371Z,100097.30
2019-03-21T23:08:04.461Z,100096.11
2019-03-21T23:10:35.842Z,100099.11
2019-03-21T23:13:05.878Z,100097.23
2019-03-21T23:15:35.565Z,100090.20
2019-03-21T23:18:05.435Z,100092.55
2019-03-21T23:20:35.225Z,100096.02
2019-03-21T23:23:05.099Z,100089.13
2019-03-21T23:25:34.891Z,100094.00
2019-03-21T23:28:04.593Z,100095.45
2019-03-21T23:30:34.325Z,100084.92
2019-03-21T23:33:04.087Z,100088.85
2019-03-21T23:35:33.818Z,100091.37
2019-03-21T23:38:03.507Z,100094.28
2019-03-21T23:40:33.254Z,100100.06
2019-03-21T23:43:02.958Z,100102.30
2019-03-21T23:45:32.949Z,100102.70
2019-03-21T23:48:02.787Z,100096.36
2019-03-21T23:50:32.900Z,100098.80
2019-03-21T23:53:02.591Z,100088.31
2019-03-21T23:55:32.290Z,100093.90
2019-03-21T23:58:02.117Z,100089.91
